createdAt,value
2019-03-25T00:00:42.986Z,1010.45
2019-03-25T00:01:43.023Z,1010.52
2019-03-25T00:02:42.978Z,1010.54
2019-03-25T00:03:43.009Z,1010.51
2019-03-25T00:04:43.018Z,1010.53
2019-03-25T00:05:42.927Z,1010.52
2019-03-25T00:06:42.981Z,1010.54
2019-03-25T00:07:43.001Z,1010.52
2019-03-25T00:08:42.909Z,1010.53
2019-03-25T00:09:42.931Z,1010.52
2019-03-25T00:10:42.980Z,1010.51
2019-03-25T00:11:42.927Z,1010.50
2019-03-25T00:12:42.915Z,1010.51
2019-03-25T00:13:42.950Z,1010.48
2019-03-25T00:14:42.885Z,1010.47
2019-03-25T00:15:42.945Z,1010.48
2019-03-25T00:16:42.867Z,1010.43
2019-03-25T00:17:42.899Z,1010.47
2019-03-25T00:18:42.865Z,1010.42
2019-03-25T00:19:42.883Z,1010.46
2019-03-25T00:20:42.916Z,1010.39
2019-03-25T00:21:42.882Z,1010.42
2019-03-25T00:22:42.839Z,1010.40
2019-03-25T00:23:42.818Z,1010.40
2019-03-25T00:24:42.814Z,1010.45
2019-03-25T00:25:42.804Z,1010.43
2019-03-25T00:26:42.815Z,1010.44
2019-03-25T00:27:42.801Z,1010.44
2019-03-25T00:28:42.807Z,1010.44
2019-03-25T00:29:42.804Z,1010.42
2019-03-25T00:30:42.807Z,1010.44
2019-03-25T00:31:42.766Z,1010.40
2019-03-25T00:32:42.781Z,1010.43
2019-03-25T00:33:42.755Z,1010.43
2019-03-25T00:34:42.763Z,1010.39
2019-03-25T00:35:42.750Z,1010.37
2019-03-25T00:36:42.743Z,1010.42
2019-03-25T00:37:42.735Z,1010.42
2019-03-25T00:38:42.748Z,1010.41
2019-03-25T00:39:42.738Z,1010.37
2019-03-25T00:40:42.707Z,1010.39
2019-03-25T00:41:51.441Z,1010.32
2019-03-25T00:43:47.229Z,1010.29
2019-03-25T00:44:47.172Z,1010.26
2019-03-25T00:45:47.186Z,1010.30
2019-03-25T00:46:47.155Z,1010.35
2019-03-25T00:47:47.172Z,1010.34
2019-03-25T00:48:47.164Z,1010.33
2019-03-25T00:49:47.139Z,1010.34
2019-03-25T00:50:47.173Z,1010.29
2019-03-25T00:51:47.146Z,1010.27
2019-03-25T00:52:54.820Z,1010.25
2019-03-25T00:54:52.645Z,1010.26
2019-03-25T00:55:52.633Z,1010.27
2019-03-25T00:58:07.104Z,1010.24
2019-03-25T00:58:58.107Z,1010.26
2019-03-25T00:59:58.119Z,1010.24
2019-03-25T01:00:58.110Z,1010.28
2019-03-25T01:01:58.082Z,1010.22
2019-03-25T01:03:06.828Z,1010.26
2019-03-25T01:05:12.561Z,1010.27
2019-03-25T01:06:12.297Z,1010.28
2019-03-25T01:08:07.619Z,1010.25
2019-03-25T01:09:07.660Z,1010.26
2019-03-25T01:10:07.616Z,1010.21
2019-03-25T01:11:07.672Z,1010.21
2019-03-25T01:12:07.623Z,1010.21
2019-03-25T01:13:07.591Z,1010.24
2019-03-25T01:14:07.571Z,1010.22
2019-03-25T01:15:07.558Z,1010.24
2019-03-25T01:16:07.566Z,1010.24
2019-03-25T01:17:07.570Z,1010.24
2019-03-25T01:18:16.364Z,1010.20
2019-03-25T01:19:07.549Z,1010.22
2019-03-25T01:20:07.550Z,1010.20
2019-03-25T01:21:16.999Z,1010.22
2019-03-25T01:23:13.090Z,1010.14
2019-03-25T01:24:13.151Z,1010.13
2019-03-25T01:25:13.033Z,1010.10
2019-03-25T01:26:13.029Z,1010.17
2019-03-25T01:27:21.717Z,1010.09
2019-03-25T01:32:37.344Z,1010.19
2019-03-25T01:33:37.312Z,1010.19
2019-03-25T01:34:37.286Z,1010.16
2019-03-25T01:35:37.283Z,1010.19
2019-03-25T01:36:37.287Z,1010.16
2019-03-25T01:37:37.248Z,1010.19
2019-03-25T01:38:37.279Z,1010.16
2019-03-25T01:39:37.276Z,1010.16
2019-03-25T01:40:37.236Z,1010.19
2019-03-25T01:41:37.224Z,1010.20
2019-03-25T01:42:37.225Z,1010.19
2019-03-25T01:43:37.238Z,1010.14
2019-03-25T01:44:37.213Z,1010.13
2019-03-25T01:45:37.225Z,1010.19
2019-03-25T01:46:37.189Z,1010.22
2019-03-25T01:47:37.239Z,1010.21
2019-03-25T01:48:37.213Z,1010.22
2019-03-25T01:49:37.226Z,1010.22
2019-03-25T01:50:37.191Z,1010.21
2019-03-25T01:51:37.199Z,1010.22
2019-03-25T01:52:37.195Z,1010.22
2019-03-25T01:53:37.183Z,1010.20
2019-03-25T01:54:37.163Z,1010.25
2019-03-25T01:55:37.165Z,1010.21
2019-03-25T01:56:37.162Z,1010.20
2019-03-25T01:57:37.175Z,1010.15
2019-03-25T01:58:37.263Z,1010.20
2019-03-25T01:59:37.141Z,1010.20
2019-03-25T02:00:45.933Z,1010.20
2019-03-25T02:02:30.588Z,1010.13
2019-03-25T02:03:39.284Z,1010.13
2019-03-25T02:05:35.057Z,1010.12
2019-03-25T02:06:44.765Z,1010.10
2019-03-25T02:08:39.553Z,1010.10
2019-03-25T02:09:48.208Z,1010.11
2019-03-25T02:11:44.993Z,1010.06
2019-03-25T02:12:44.983Z,1010.07
2019-03-25T02:13:44.987Z,1010.05
2019-03-25T02:14:44.945Z,1010.01
2019-03-25T02:15:44.943Z,1010.04
2019-03-25T02:16:44.945Z,1010.02
2019-03-25T02:17:44.919Z,1010.03
2019-03-25T02:18:44.939Z,1010.03
2019-03-25T02:19:44.912Z,1009.99
2019-03-25T02:20:44.909Z,1009.97
2019-03-25T02:21:44.958Z,1009.99
2019-03-25T02:22:45.058Z,1010.01
2019-03-25T02:23:44.900Z,1010.01
2019-03-25T02:24:44.877Z,1010.01
2019-03-25T02:25:44.870Z,1010.01
2019-03-25T02:26:44.857Z,1010.02
2019-03-25T02:27:44.875Z,1009.99
2019-03-25T02:28:44.866Z,1009.98
2019-03-25T02:29:44.860Z,1009.99
2019-03-25T02:30:44.849Z,1009.98
2019-03-25T02:31:44.867Z,1009.99
2019-03-25T02:32:44.821Z,1010.00
2019-03-25T02:33:44.825Z,1009.99
2019-03-25T02:34:53.779Z,1009.97
2019-03-25T02:38:37.775Z,1010.03
2019-03-25T02:39:37.407Z,1010.03
2019-03-25T02:41:33.234Z,1009.99
2019-03-25T02:42:33.218Z,1010.01
2019-03-25T02:43:33.203Z,1009.99
2019-03-25T02:44:33.193Z,1010.01
2019-03-25T02:45:33.265Z,1009.95
2019-03-25T02:46:33.179Z,1009.92
2019-03-25T02:47:33.179Z,1009.92
2019-03-25T02:48:33.173Z,1009.93
2019-03-25T02:49:33.170Z,1009.92
2019-03-25T02:50:33.159Z,1009.92
2019-03-25T02:51:33.144Z,1009.91
2019-03-25T02:52:33.143Z,1009.91
2019-03-25T02:53:33.121Z,1009.94
2019-03-25T02:54:33.114Z,1009.91
2019-03-25T02:55:41.522Z,1009.91
2019-03-25T02:56:33.110Z,1009.91
2019-03-25T03:14:15.072Z,1010.01
2019-03-25T03:15:11.712Z,1010.00
2019-03-25T03:16:11.722Z,1009.97
2019-03-25T03:17:11.699Z,1010.00
2019-03-25T03:18:11.726Z,1009.97
2019-03-25T03:19:11.678Z,1010.00
2019-03-25T03:20:11.666Z,1009.99
2019-03-25T03:21:11.657Z,1009.96
2019-03-25T03:22:11.649Z,1009.99
2019-03-25T03:23:20.285Z,1009.97
2019-03-25T03:25:17.193Z,1009.92
2019-03-25T03:26:26.818Z,1009.96
2019-03-25T03:28:31.561Z,1009.94
2019-03-25T03:29:32.687Z,1009.93
2019-03-25T03:31:27.053Z,1009.88
2019-03-25T03:32:27.059Z,1009.90
2019-03-25T03:33:27.057Z,1009.89
2019-03-25T03:34:27.026Z,1009.90
2019-03-25T03:35:27.010Z,1009.90
2019-03-25T03:36:27.009Z,1009.92
2019-03-25T03:37:26.999Z,1009.91
2019-03-25T03:38:26.983Z,1009.85
2019-03-25T03:39:26.994Z,1009.86
2019-03-25T03:40:26.977Z,1009.89
2019-03-25T03:41:27.023Z,1009.87
2019-03-25T03:42:26.966Z,1009.91
2019-03-25T03:43:26.942Z,1009.86
2019-03-25T03:44:26.957Z,1009.86
2019-03-25T03:45:26.946Z,1009.88
2019-03-25T03:46:26.937Z,1009.84
2019-03-25T03:47:26.915Z,1009.87
2019-03-25T03:48:26.902Z,1009.87
2019-03-25T03:49:26.888Z,1009.86
2019-03-25T03:50:26.896Z,1009.88
2019-03-25T03:51:26.903Z,1009.87
2019-03-25T03:52:26.914Z,1009.86
2019-03-25T03:53:26.898Z,1009.89
2019-03-25T03:54:33.101Z,1009.89
2019-03-25T03:55:26.857Z,1009.89
2019-03-25T03:56:26.844Z,1009.89
2019-03-25T03:57:26.853Z,1009.84
2019-03-25T03:58:26.847Z,1009.89
2019-03-25T03:59:26.842Z,1009.88
2019-03-25T04:00:26.787Z,1009.88
2019-03-25T04:01:26.778Z,1009.92
2019-03-25T04:02:26.769Z,1009.87
2019-03-25T04:03:26.770Z,1009.88
2019-03-25T04:04:26.781Z,1009.90
2019-03-25T04:05:35.425Z,1009.86
2019-03-25T04:07:31.701Z,1009.88
2019-03-25T04:08:31.676Z,1009.87
2019-03-25T04:09:31.639Z,1009.90
2019-03-25T04:10:31.616Z,1009.86
2019-03-25T04:11:31.632Z,1009.86
2019-03-25T04:12:31.626Z,1009.86
2019-03-25T04:13:31.633Z,1009.84
2019-03-25T04:14:31.639Z,1009.87
2019-03-25T04:15:31.602Z,1009.81
2019-03-25T04:16:31.625Z,1009.78
2019-03-25T04:17:31.580Z,1009.82
2019-03-25T04:18:31.573Z,1009.81
2019-03-25T04:19:31.597Z,1009.77
2019-03-25T04:20:31.618Z,1009.78
2019-03-25T04:21:31.540Z,1009.76
2019-03-25T04:22:31.594Z,1009.78
2019-03-25T04:23:31.574Z,1009.78
2019-03-25T04:24:31.509Z,1009.80
2019-03-25T04:25:31.526Z,1009.80
2019-03-25T04:26:31.541Z,1009.80
2019-03-25T04:27:31.510Z,1009.81
2019-03-25T04:28:31.497Z,1009.86
2019-03-25T04:29:40.254Z,1009.82
2019-03-25T04:31:36.979Z,1009.81
2019-03-25T04:32:36.971Z,1009.83
2019-03-25T04:33:36.928Z,1009.84
2019-03-25T04:34:37.067Z,1009.82
2019-03-25T04:35:36.909Z,1009.79
2019-03-25T04:36:36.926Z,1009.77
2019-03-25T04:37:36.920Z,1009.81
2019-03-25T04:38:36.943Z,1009.80
2019-03-25T04:39:45.581Z,1009.80
2019-03-25T04:41:41.428Z,1009.80
2019-03-25T04:42:50.054Z,1009.80
2019-03-25T04:44:45.884Z,1009.80
2019-03-25T04:45:45.869Z,1009.82
2019-03-25T04:46:45.827Z,1009.82
2019-03-25T04:47:45.872Z,1009.80
2019-03-25T04:48:45.829Z,1009.79
2019-03-25T04:49:45.808Z,1009.82
2019-03-25T04:50:45.813Z,1009.82
2019-03-25T04:51:45.813Z,1009.84
2019-03-25T04:52:54.527Z,1009.84
2019-03-25T04:54:50.358Z,1009.86
2019-03-25T04:55:58.961Z,1009.84
2019-03-25T04:58:03.770Z,1009.87
2019-03-25T04:59:05.398Z,1009.85
2019-03-25T05:01:09.236Z,1009.79
2019-03-25T05:02:08.930Z,1009.77
2019-03-25T05:04:13.732Z,1009.80
2019-03-25T05:05:13.448Z,1009.80
2019-03-25T05:07:19.200Z,1009.82
2019-03-25T05:08:18.070Z,1009.83
2019-03-25T05:10:13.709Z,1009.81
2019-03-25T05:11:13.680Z,1009.81
2019-03-25T05:12:13.661Z,1009.84
2019-03-25T05:13:13.652Z,1009.85
2019-03-25T05:14:13.659Z,1009.83
2019-03-25T05:15:13.654Z,1009.87
2019-03-25T05:16:13.626Z,1009.84
2019-03-25T05:17:13.822Z,1009.85
2019-03-25T05:18:13.627Z,1009.84
2019-03-25T05:19:13.621Z,1009.83
2019-03-25T05:20:13.568Z,1009.83
2019-03-25T05:21:13.580Z,1009.82
2019-03-25T05:22:13.605Z,1009.85
2019-03-25T05:23:13.584Z,1009.85
2019-03-25T05:24:13.593Z,1009.85
2019-03-25T05:25:13.566Z,1009.85
2019-03-25T05:26:13.521Z,1009.81
2019-03-25T05:27:13.605Z,1009.82
2019-03-25T05:28:13.512Z,1009.82
2019-03-25T05:29:13.521Z,1009.86
2019-03-25T05:30:13.516Z,1009.87
2019-03-25T05:31:13.523Z,1009.90
2019-03-25T05:32:13.520Z,1009.87
2019-03-25T05:33:13.467Z,1009.88
2019-03-25T05:34:13.486Z,1009.81
2019-03-25T05:35:13.449Z,1009.85
2019-03-25T05:36:13.457Z,1009.85
2019-03-25T05:37:13.450Z,1009.83
2019-03-25T05:38:13.420Z,1009.81
2019-03-25T05:39:13.453Z,1009.84
2019-03-25T05:40:13.419Z,1009.84
2019-03-25T05:41:13.403Z,1009.82
2019-03-25T05:42:13.397Z,1009.80
2019-03-25T05:43:13.406Z,1009.77
2019-03-25T05:44:13.396Z,1009.78
2019-03-25T05:45:13.412Z,1009.76
2019-03-25T05:46:13.348Z,1009.79
2019-03-25T05:47:13.368Z,1009.80
2019-03-25T05:48:13.343Z,1009.79
2019-03-25T05:49:13.344Z,1009.82
2019-03-25T05:50:13.344Z,1009.80
2019-03-25T05:51:13.321Z,1009.82
2019-03-25T05:52:13.356Z,1009.82
2019-03-25T05:53:13.313Z,1009.80
2019-03-25T05:54:13.285Z,1009.80
2019-03-25T05:55:13.295Z,1009.82
2019-03-25T05:56:13.298Z,1009.79
2019-03-25T05:57:13.322Z,1009.82
2019-03-25T05:58:21.978Z,1009.85
2019-03-25T06:00:17.811Z,1009.90
2019-03-25T06:01:17.739Z,1009.88
2019-03-25T06:02:17.737Z,1009.90
2019-03-25T06:03:17.754Z,1009.92
2019-03-25T06:04:17.734Z,1009.93
2019-03-25T06:05:17.705Z,1009.94
2019-03-25T06:06:17.701Z,1009.97
2019-03-25T06:07:17.712Z,1009.95
2019-03-25T06:08:17.709Z,1009.95
2019-03-25T06:09:17.677Z,1009.95
2019-03-25T06:10:17.732Z,1009.98
2019-03-25T06:11:17.684Z,1009.98
2019-03-25T06:12:17.646Z,1009.96
2019-03-25T06:13:17.685Z,1010.02
2019-03-25T06:14:17.640Z,1010.01
2019-03-25T06:15:17.720Z,1009.99
2019-03-25T06:16:17.662Z,1010.02
2019-03-25T06:17:17.631Z,1010.00
2019-03-25T06:18:20.287Z,1010.01
2019-03-25T06:19:17.625Z,1009.96
2019-03-25T06:20:17.588Z,1009.96
2019-03-25T06:21:17.582Z,1009.97
2019-03-25T06:22:17.590Z,1009.97
2019-03-25T06:23:17.594Z,1009.97
2019-03-25T06:24:17.570Z,1009.96
2019-03-25T06:25:17.554Z,1009.95
2019-03-25T06:26:17.540Z,1009.93
2019-03-25T06:27:17.531Z,1009.97
2019-03-25T06:28:17.543Z,1009.95
2019-03-25T06:29:17.508Z,1009.96
2019-03-25T06:30:17.515Z,1009.94
2019-03-25T06:31:17.528Z,1009.93
2019-03-25T06:32:17.508Z,1009.90
2019-03-25T06:33:17.467Z,1009.92
2019-03-25T06:34:17.491Z,1009.93
2019-03-25T06:35:17.461Z,1009.85
2019-03-25T06:36:17.446Z,1009.82
2019-03-25T06:37:17.465Z,1009.73
2019-03-25T06:38:17.458Z,1009.71
2019-03-25T06:39:17.471Z,1009.69
2019-03-25T06:40:17.419Z,1009.71
2019-03-25T06:41:17.431Z,1009.65
2019-03-25T06:42:17.410Z,1009.65
2019-03-25T06:43:17.407Z,1009.71
2019-03-25T06:44:17.402Z,1009.69
2019-03-25T06:45:17.410Z,1009.67
2019-03-25T06:46:17.384Z,1009.70
2019-03-25T06:47:17.369Z,1009.71
2019-03-25T06:48:17.352Z,1009.70
2019-03-25T06:49:17.371Z,1009.67
2019-03-25T06:50:17.338Z,1009.62
2019-03-25T06:51:17.357Z,1009.71
2019-03-25T06:52:17.377Z,1009.67
2019-03-25T06:53:17.344Z,1009.69
2019-03-25T06:54:17.297Z,1009.69
2019-03-25T06:55:17.305Z,1009.69
2019-03-25T06:56:17.297Z,1009.67
2019-03-25T06:57:25.430Z,1009.69
2019-03-25T06:58:17.292Z,1009.70
2019-03-25T06:59:17.272Z,1009.72
2019-03-25T07:00:17.248Z,1009.69
2019-03-25T07:01:17.242Z,1009.72
2019-03-25T07:02:17.269Z,1009.82
2019-03-25T07:03:17.253Z,1009.79
2019-03-25T07:04:17.249Z,1009.80
2019-03-25T07:05:17.250Z,1009.80
2019-03-25T07:06:17.236Z,1009.79
2019-03-25T07:07:17.266Z,1009.80
2019-03-25T07:08:17.200Z,1009.72
2019-03-25T07:09:18.723Z,1009.84
2019-03-25T07:10:17.182Z,1009.83
2019-03-25T07:11:17.183Z,1009.83
2019-03-25T07:12:17.179Z,1009.83
2019-03-25T07:13:17.188Z,1009.87
2019-03-25T07:14:17.136Z,1009.86
2019-03-25T07:15:17.214Z,1009.89
2019-03-25T07:16:17.133Z,1009.89
2019-03-25T07:17:17.136Z,1009.87
2019-03-25T07:18:17.135Z,1009.94
2019-03-25T07:19:17.131Z,1009.90
2019-03-25T07:20:17.121Z,1009.94
2019-03-25T07:21:17.080Z,1009.88
2019-03-25T07:22:17.083Z,1009.90
2019-03-25T07:23:17.069Z,1009.93
2019-03-25T07:24:17.076Z,1009.92
2019-03-25T07:25:17.082Z,1009.94
2019-03-25T07:26:17.062Z,1009.95
2019-03-25T07:27:17.045Z,1009.92
2019-03-25T07:28:17.023Z,1009.88
2019-03-25T07:29:17.017Z,1009.87
2019-03-25T07:30:17.057Z,1009.89
2019-03-25T07:31:17.010Z,1009.86
2019-03-25T07:32:17.037Z,1009.90
2019-03-25T07:33:17.019Z,1009.90
2019-03-25T07:34:16.976Z,1009.90
2019-03-25T07:35:17.021Z,1009.90
2019-03-25T07:36:17.036Z,1009.88
2019-03-25T07:37:16.965Z,1009.84
2019-03-25T07:38:16.981Z,1009.86
2019-03-25T07:39:16.963Z,1009.87
2019-03-25T07:40:16.987Z,1009.86
2019-03-25T07:41:17.201Z,1009.85
2019-03-25T07:42:16.986Z,1009.87
2019-03-25T07:43:16.907Z,1009.88
2019-03-25T07:44:16.917Z,1009.91
2019-03-25T07:45:16.897Z,1009.89
2019-03-25T07:46:16.917Z,1009.85
2019-03-25T07:47:16.891Z,1009.92
2019-03-25T07:48:16.923Z,1009.93
2019-03-25T07:49:16.894Z,1009.94
2019-03-25T07:50:16.849Z,1009.91
2019-03-25T07:51:16.845Z,1009.94
2019-03-25T07:52:16.864Z,1009.97
2019-03-25T07:53:16.840Z,1009.97
2019-03-25T07:56:07.550Z,1010.05
2019-03-25T07:57:07.563Z,1010.12
2019-03-25T07:58:07.555Z,1010.08
2019-03-25T07:59:07.685Z,1010.13
2019-03-25T08:00:13.451Z,1010.10
2019-03-25T08:01:17.312Z,1010.09
2019-03-25T08:03:12.052Z,1010.10
2019-03-25T08:04:11.964Z,1010.12
2019-03-25T08:05:12.058Z,1010.01
2019-03-25T08:06:11.904Z,1010.08
2019-03-25T08:07:11.906Z,1010.11
2019-03-25T08:08:11.967Z,1010.11
2019-03-25T08:09:11.882Z,1010.10
2019-03-25T08:10:11.927Z,1010.07
2019-03-25T08:11:11.904Z,1010.09
2019-03-25T08:12:11.879Z,1010.02
2019-03-25T08:13:11.956Z,1010.03
2019-03-25T08:14:11.860Z,1010.04
2019-03-25T08:15:11.854Z,1010.08
2019-03-25T08:16:11.820Z,1010.07
2019-03-25T08:17:11.814Z,1010.02
2019-03-25T08:18:20.537Z,1009.94
2019-03-25T08:20:16.391Z,1009.90
2019-03-25T08:21:26.161Z,1009.95
2019-03-25T08:23:21.645Z,1009.89
2019-03-25T08:24:30.565Z,1009.94
2019-03-25T08:26:26.161Z,1009.92
2019-03-25T08:27:34.925Z,1009.96
2019-03-25T08:29:30.602Z,1009.86
2019-03-25T08:30:38.450Z,1009.92
2019-03-25T08:32:24.093Z,1009.97
2019-03-25T08:33:24.030Z,1009.98
2019-03-25T08:35:28.627Z,1009.95
2019-03-25T08:36:37.523Z,1009.95
2019-03-25T08:38:33.036Z,1009.91
2019-03-25T08:39:32.946Z,1009.87
2019-03-25T08:40:32.961Z,1009.93
2019-03-25T08:41:32.923Z,1009.96
2019-03-25T08:42:32.990Z,1009.94
2019-03-25T08:43:41.103Z,1009.94
2019-03-25T08:45:45.882Z,1009.93
2019-03-25T08:46:45.794Z,1009.91
2019-03-25T08:47:45.863Z,1009.89
2019-03-25T08:48:45.749Z,1009.82
2019-03-25T08:49:45.764Z,1009.92
2019-03-25T08:50:45.741Z,1009.98
2019-03-25T08:51:45.744Z,1010.00
2019-03-25T08:52:45.740Z,1010.00
2019-03-25T08:53:45.730Z,1010.16
2019-03-25T08:54:45.717Z,1010.12
2019-03-25T08:55:45.744Z,1010.15
2019-03-25T08:56:45.756Z,1010.16
2019-03-25T08:57:45.706Z,1010.18
2019-03-25T08:58:45.793Z,1010.20
2019-03-25T08:59:45.673Z,1010.18
2019-03-25T09:00:45.706Z,1010.17
2019-03-25T09:01:45.660Z,1010.23
2019-03-25T09:02:45.691Z,1010.20
2019-03-25T09:03:45.675Z,1010.23
2019-03-25T09:04:45.711Z,1010.21
2019-03-25T09:05:45.664Z,1010.20
2019-03-25T09:06:47.853Z,1010.21
2019-03-25T09:07:45.629Z,1010.15
2019-03-25T09:08:45.621Z,1010.10
2019-03-25T09:11:27.372Z,1010.15
2019-03-25T09:12:26.987Z,1010.10
2019-03-25T09:13:26.994Z,1010.04
2019-03-25T09:14:27.127Z,1010.17
2019-03-25T09:15:26.920Z,1010.17
2019-03-25T09:16:27.364Z,1010.12
2019-03-25T09:17:27.836Z,1010.16
2019-03-25T09:18:27.047Z,1010.14
2019-03-25T09:19:26.982Z,1010.17
2019-03-25T09:20:27.156Z,1010.17
2019-03-25T09:21:27.206Z,1010.21
2019-03-25T09:22:27.132Z,1010.16
2019-03-25T09:23:27.068Z,1010.21
2019-03-25T09:24:27.017Z,1010.19
2019-03-25T09:25:27.033Z,1010.17
2019-03-25T09:26:27.121Z,1010.18
2019-03-25T09:27:27.132Z,1010.20
2019-03-25T09:28:27.148Z,1010.23
2019-03-25T09:29:27.079Z,1010.23
2019-03-25T09:30:27.365Z,1010.21
2019-03-25T09:31:36.318Z,1010.19
2019-03-25T09:32:27.049Z,1010.14
2019-03-25T09:33:26.931Z,1010.18
2019-03-25T09:34:27.038Z,1010.15
2019-03-25T09:35:27.196Z,1010.17
2019-03-25T09:36:26.954Z,1010.20
2019-03-25T09:37:27.067Z,1010.21
2019-03-25T09:38:27.078Z,1010.19
2019-03-25T09:39:27.665Z,1010.20
2019-03-25T09:40:26.978Z,1010.16
2019-03-25T09:41:26.935Z,1010.20
2019-03-25T09:42:26.888Z,1010.32
2019-03-25T09:43:27.063Z,1010.15
2019-03-25T09:44:26.977Z,1010.20
2019-03-25T09:45:27.225Z,1010.18
2019-03-25T09:46:26.764Z,1010.19
2019-03-25T09:47:26.967Z,1010.19
2019-03-25T09:48:27.014Z,1010.16
2019-03-25T09:49:27.138Z,1010.07
2019-03-25T09:50:26.838Z,1010.10
2019-03-25T09:51:27.573Z,1010.12
2019-03-25T09:52:37.939Z,1010.03
2019-03-25T09:53:26.696Z,1010.06
2019-03-25T09:54:27.571Z,1010.03
2019-03-25T09:55:26.700Z,1009.98
2019-03-25T09:56:27.445Z,1010.01
2019-03-25T09:57:27.153Z,1010.11
2019-03-25T09:58:35.579Z,1010.11
2019-03-25T09:59:27.498Z,1010.08
2019-03-25T10:00:27.346Z,1010.01
2019-03-25T10:01:26.862Z,1010.00
2019-03-25T10:02:26.778Z,1010.00
2019-03-25T10:03:26.667Z,1010.01
2019-03-25T10:04:27.462Z,1009.99
2019-03-25T10:05:26.931Z,1010.01
2019-03-25T10:06:26.660Z,1009.97
2019-03-25T10:07:28.430Z,1009.99
2019-03-25T10:08:26.649Z,1009.96
2019-03-25T10:09:26.898Z,1009.95
2019-03-25T10:10:26.619Z,1010.02
2019-03-25T10:11:26.598Z,1010.04
2019-03-25T10:12:26.585Z,1009.98
2019-03-25T10:13:26.660Z,1010.03
2019-03-25T10:14:26.732Z,1010.02
2019-03-25T10:15:35.843Z,1010.01
2019-03-25T10:17:21.674Z,1009.93
2019-03-25T10:18:21.186Z,1009.84
2019-03-25T10:20:30.341Z,1009.92
2019-03-25T10:21:30.242Z,1009.90
2019-03-25T10:22:30.526Z,1009.91
2019-03-25T10:23:30.248Z,1009.87
2019-03-25T10:24:30.627Z,1009.94
2019-03-25T10:25:30.062Z,1009.93
2019-03-25T10:26:30.151Z,1010.00
2019-03-25T10:27:30.006Z,1009.91
2019-03-25T10:28:30.255Z,1009.93
2019-03-25T10:29:30.344Z,1009.96
2019-03-25T10:30:30.361Z,1009.96
2019-03-25T10:31:30.413Z,1009.98
2019-03-25T10:32:29.983Z,1010.00
2019-03-25T10:33:30.028Z,1009.97
2019-03-25T10:34:30.654Z,1009.89
2019-03-25T10:35:29.985Z,1009.96
2019-03-25T10:36:31.703Z,1009.88
2019-03-25T10:37:29.961Z,1009.95
2019-03-25T10:38:29.962Z,1009.93
2019-03-25T10:39:29.970Z,1009.98
2019-03-25T10:40:29.948Z,1009.92
2019-03-25T10:41:29.940Z,1009.89
2019-03-25T10:42:29.946Z,1009.91
2019-03-25T10:43:29.933Z,1009.87
2019-03-25T10:44:29.984Z,1009.90
2019-03-25T10:45:29.946Z,1009.84
2019-03-25T10:46:29.918Z,1009.82
2019-03-25T10:47:29.934Z,1009.83
2019-03-25T10:48:29.934Z,1009.80
2019-03-25T10:49:29.916Z,1009.78
2019-03-25T10:50:29.881Z,1009.69
2019-03-25T10:51:29.922Z,1009.71
2019-03-25T10:52:29.895Z,1009.61
2019-03-25T10:53:29.898Z,1009.76
2019-03-25T10:54:30.006Z,1009.73
2019-03-25T10:55:40.025Z,1009.77
2019-03-25T10:57:34.379Z,1009.73
2019-03-25T10:58:42.321Z,1009.80
2019-03-25T11:00:39.984Z,1009.69
2019-03-25T11:01:39.927Z,1009.63
2019-03-25T11:02:39.830Z,1009.67
2019-03-25T11:03:39.835Z,1009.67
2019-03-25T11:04:39.975Z,1009.62
2019-03-25T11:05:39.841Z,1009.59
2019-03-25T11:06:39.817Z,1009.59
2019-03-25T11:07:39.936Z,1009.60
2019-03-25T11:08:39.803Z,1009.67
2019-03-25T11:09:39.808Z,1009.59
2019-03-25T11:10:39.849Z,1009.67
2019-03-25T11:11:39.784Z,1009.64
2019-03-25T11:12:39.801Z,1009.68
2019-03-25T11:13:39.793Z,1009.62
2019-03-25T11:14:39.792Z,1009.68
2019-03-25T11:15:39.813Z,1009.63
2019-03-25T11:16:39.786Z,1009.59
2019-03-25T11:17:39.799Z,1009.64
2019-03-25T11:18:39.901Z,1009.59
2019-03-25T11:19:39.845Z,1009.60
2019-03-25T11:20:39.884Z,1009.50
2019-03-25T11:21:39.737Z,1009.52
2019-03-25T11:22:39.726Z,1009.54
2019-03-25T11:23:39.726Z,1009.51
2019-03-25T11:24:39.687Z,1009.51
2019-03-25T11:25:39.701Z,1009.42
2019-03-25T11:26:39.712Z,1009.44
2019-03-25T11:27:39.690Z,1009.47
2019-03-25T11:28:39.732Z,1009.38
2019-03-25T11:29:39.684Z,1009.42
2019-03-25T11:30:39.682Z,1009.41
2019-03-25T11:31:39.701Z,1009.41
2019-03-25T11:32:39.697Z,1009.42
2019-03-25T11:33:39.751Z,1009.33
2019-03-25T11:34:39.662Z,1009.40
2019-03-25T11:35:39.676Z,1009.37
2019-03-25T11:36:39.692Z,1009.37
2019-03-25T11:37:39.676Z,1009.38
2019-03-25T11:38:39.674Z,1009.32
2019-03-25T11:39:39.806Z,1009.36
2019-03-25T11:40:48.786Z,1009.40
2019-03-25T11:42:33.284Z,1009.46
2019-03-25T11:43:33.120Z,1009.49
2019-03-25T11:44:33.909Z,1009.46
2019-03-25T11:45:33.270Z,1009.41
2019-03-25T11:46:33.030Z,1009.42
2019-03-25T11:47:33.015Z,1009.48
2019-03-25T11:48:33.059Z,1009.45
2019-03-25T11:49:33.034Z,1009.46
2019-03-25T11:50:32.996Z,1009.51
2019-03-25T11:51:33.056Z,1009.54
2019-03-25T11:54:13.105Z,1009.52
2019-03-25T11:55:22.582Z,1009.47
2019-03-25T11:57:27.523Z,1009.52
2019-03-25T11:58:18.405Z,1009.57
2019-03-25T11:59:19.052Z,1009.64
2019-03-25T12:00:18.375Z,1009.62
2019-03-25T12:01:18.548Z,1009.62
2019-03-25T12:02:18.379Z,1009.63
2019-03-25T12:03:18.340Z,1009.64
2019-03-25T12:04:18.426Z,1009.66
2019-03-25T12:05:18.426Z,1009.62
2019-03-25T12:06:18.351Z,1009.63
2019-03-25T12:07:18.532Z,1009.66
2019-03-25T12:08:18.273Z,1009.58
2019-03-25T12:09:18.331Z,1009.57
2019-03-25T12:10:18.298Z,1009.68
2019-03-25T12:11:18.291Z,1009.50
2019-03-25T12:12:18.346Z,1009.59
2019-03-25T12:13:18.358Z,1009.61
2019-03-25T12:14:18.302Z,1009.59
2019-03-25T12:15:18.310Z,1009.66
2019-03-25T12:16:18.291Z,1009.64
2019-03-25T12:17:27.224Z,1009.57
2019-03-25T12:19:23.552Z,1009.53
2019-03-25T12:20:31.715Z,1009.58
2019-03-25T12:22:25.339Z,1009.62
2019-03-25T12:23:25.750Z,1009.49
2019-03-25T12:24:24.908Z,1009.59
2019-03-25T12:26:20.968Z,1009.46
2019-03-25T12:27:31.093Z,1009.54
2019-03-25T12:29:30.485Z,1009.49
2019-03-25T12:30:25.654Z,1009.49
2019-03-25T12:31:25.935Z,1009.44
2019-03-25T12:32:25.102Z,1009.54
2019-03-25T12:33:25.104Z,1009.50
2019-03-25T12:34:25.231Z,1009.43
2019-03-25T12:35:25.060Z,1009.44
2019-03-25T12:36:25.171Z,1009.37
2019-03-25T12:37:25.081Z,1009.43
2019-03-25T12:38:25.090Z,1009.42
2019-03-25T12:39:25.115Z,1009.34
2019-03-25T12:40:25.062Z,1009.39
2019-03-25T12:41:25.112Z,1009.29
2019-03-25T12:42:25.098Z,1009.24
2019-03-25T12:43:25.163Z,1009.29
2019-03-25T12:44:25.037Z,1009.28
2019-03-25T12:45:25.134Z,1009.26
2019-03-25T12:46:25.054Z,1009.23
2019-03-25T12:47:25.054Z,1009.20
2019-03-25T12:48:25.036Z,1009.25
2019-03-25T12:49:25.098Z,1009.24
2019-03-25T12:50:25.005Z,1009.21
2019-03-25T12:51:25.022Z,1009.22
2019-03-25T12:52:25.014Z,1009.23
2019-03-25T12:53:25.030Z,1009.23
2019-03-25T12:54:25.112Z,1009.20
2019-03-25T12:55:24.975Z,1009.17
2019-03-25T12:56:25.052Z,1009.19
2019-03-25T12:57:24.992Z,1009.08
2019-03-25T12:58:24.984Z,1009.13
2019-03-25T12:59:24.966Z,1009.13
2019-03-25T13:00:25.086Z,1009.04
2019-03-25T13:01:24.949Z,1009.04
2019-03-25T13:02:24.944Z,1008.95
2019-03-25T13:03:24.985Z,1008.90
2019-03-25T13:04:24.987Z,1008.84
2019-03-25T13:05:24.959Z,1008.92
2019-03-25T13:06:24.959Z,1008.86
2019-03-25T13:07:24.902Z,1008.84
2019-03-25T13:08:32.750Z,1008.80
2019-03-25T13:09:34.004Z,1008.82
2019-03-25T13:11:29.794Z,1008.81
2019-03-25T13:12:29.431Z,1008.86
2019-03-25T13:13:29.474Z,1008.78
2019-03-25T13:14:29.610Z,1008.82
2019-03-25T13:15:29.667Z,1008.81
2019-03-25T13:16:29.392Z,1008.78
2019-03-25T13:17:29.462Z,1008.80
2019-03-25T13:18:29.424Z,1008.81
2019-03-25T13:19:29.428Z,1008.79
2019-03-25T13:20:29.377Z,1008.84
2019-03-25T13:21:29.405Z,1008.81
2019-03-25T13:22:29.375Z,1008.81